Aviation Digital Data Service (ADDS)

Output produced by METARs form (1510 UTC 22 July 2014)
found at http://www.aviationweather.gov/adds/metars/
 
KDUJ 221456Z AUTO 23006KT 10SM BKN019 BKN025 OVC034 26/21 A3018 RMK AO2 SLP206 T02610206 58004
KDUJ 221442Z AUTO 23004KT 10SM SCT017 BKN025 BKN032 26/21 A3019 RMK AO2 T02560206
KDUJ 221434Z AUTO 21004KT 10SM SCT016 SCT028 BKN032 26/21 A3019 RMK AO2 T02560206
KDUJ 221410Z AUTO VRB03KT 10SM BKN016 24/20 A3019 RMK AO2 T02440200
KDUJ 221356Z AUTO VRB03KT 10SM FEW014 25/21 A3019 RMK AO2 SLP208 T02500206
KDUJ 221256Z AUTO 16004KT 9SM CLR 23/20 A3020 RMK AO2 SLP213 T02280200
KDUJ 221156Z AUTO 10003KT 5SM BR CLR 21/19 A3020 RMK AO2 SLP212 T02060194 10211 20183 51007
KDUJ 221141Z AUTO 13005KT 3SM BR CLR 21/19 A3020 RMK AO2 T02060194
KDUJ 221134Z AUTO 12004KT 2 1/2SM BR CLR 20/19 A3020 RMK AO2 T02000194
KDUJ 221126Z AUTO 11003KT 3SM BR CLR 20/19 A3020 RMK AO2 T02000194
KDUJ 221056Z AUTO 11004KT 2 1/2SM BR CLR 19/19 A3019 RMK AO2 SLP210 T01940189
KDUJ 221030Z AUTO 11004KT 2 1/2SM BR FEW004 19/18 A3019 RMK AO2 T01940183
KDUJ 221020Z AUTO 12004KT 1 1/4SM BR FEW004 19/18 A3019 RMK AO2 T01890183
KDUJ 221009Z AUTO 11005KT 1/4SM FG VV004 19/18 A3019 RMK AO2 T01890178
KDUJ 220958Z AUTO 10004KT 3/4SM BR VV002 19/18 A3019 RMK AO2 T01890183
KDUJ 220956Z AUTO 10004KT 1 1/4SM BR SCT002 19/18 A3019 RMK AO2 SLP208 T01890183
KDUJ 220951Z AUTO 11005KT 1SM BR VV002 19/18 A3018 RMK AO2
KDUJ 220941Z AUTO 11004KT 1/4SM FG VV002 18/18 A3018 RMK AO2 T01830178
KDUJ 220933Z AUTO 07003KT 1/4SM FG VV001 18/17 A3018 RMK AO2 T01830172
KDUJ 220856Z AUTO 08003KT 1/4SM FG VV002 19/18 A3018 RMK AO2 SLP205 T01890178 55001
KDUJ 220848Z AUTO 08004KT 1/4SM FG VV002 19/18 A3018 RMK AO2 T01890183
KDUJ 220840Z AUTO 08004KT 1/2SM FG VV003 19/18 A3017 RMK AO2 T01890178
KDUJ 220756Z AUTO 08003KT 1/4SM FG VV003 19/18 A3017 RMK AO2 SLP203 T01940183
KDUJ 220735Z AUTO 09003KT 1/4SM FG VV003 19/18 A3017 RMK AO2 T01940183
KDUJ 220726Z AUTO 00000KT 1/4SM FG VV005 19/19 A3017 RMK AO2 T01940189
KDUJ 220721Z AUTO 08003KT 1SM BR VV006 19/18 A3017 RMK AO2 T01940183
KDUJ 220656Z AUTO 00000KT 6SM BR CLR 20/19 A3017 RMK AO2 SLP203 T02000189 TSNO
KDUJ 220556Z AUTO 15004KT 9SM CLR 21/19 A3018 RMK AO2 SLP205 T02110189 10250 20211 58000
KDUJ 220456Z AUTO 15003KT 10SM SCT037 BKN047 22/19 A3019 RMK AO2 SLP209 T02170194 402720167
KDUJ 220356Z AUTO 14005KT 10SM FEW035 22/19 A3018 RMK AO2 SLP207 T02170194
KDUJ 220256Z AUTO 15004KT 10SM CLR 22/19 A3018 RMK AO2 SLP207 T02220194 50005
KDUJ 220156Z AUTO 15004KT 10SM CLR 23/19 A3018 RMK AO2 SLP207 T02280194
KDUJ 220056Z AUTO 16004KT 10SM OVC095 24/20 A3017 RMK AO2 SLP203 T02390200
KDUJ 212356Z AUTO 00000KT 9SM OVC095 25/19 A3016 RMK AO2 SLP202 T02500194 10272 20250 53003
KDUJ 212256Z AUTO 20003KT 10SM OVC090 26/19 A3016 RMK AO2 SLP200 T02610189
KDUJ 212156Z AUTO 16004KT 10SM FEW040 BKN090 27/19 A3016 RMK AO2 SLP200 T02670189
KDUJ 212056Z AUTO 19004KT 10SM FEW032 SCT055 27/19 A3015 RMK AO2 SLP199 T02720189 56009
KDUJ 211956Z AUTO VRB04KT 10SM FEW080 27/19 A3016 RMK AO2 SLP199 T02670189
KDUJ 211856Z AUTO 17005KT 10SM SCT026 26/19 A3017 RMK AO2 SLP205 T02610189
KDUJ 211826Z AUTO 13009KT 10SM SCT027 BKN039 BKN050 26/19 A3018 RMK AO2 T02610194
KDUJ 211818Z AUTO 17005KT 10SM BKN029 BKN039 26/19 A3018 RMK AO2 T02610189
KDUJ 211756Z AUTO VRB04KT 10SM FEW024 SCT033 BKN039 27/19 A3018 RMK AO2 SLP207 T02670194 10267 20189 58003
KDUJ 211656Z AUTO 17008KT 10SM FEW022 FEW038 25/19 A3019 RMK AO2 SLP211 T02500194
KDUJ 211624Z AUTO 14006KT 10SM FEW018 SCT026 BKN033 25/19 A3019 RMK AO2 T02500194
KDUJ 211556Z AUTO 13003KT 10SM SCT019 BKN026 OVC035 23/19 A3019 RMK AO2 SLP212 T02330189
KDUJ 211512Z AUTO 15004KT 10SM BKN017 BKN027 OVC043 23/18 A3019 RMK AO2 T02330183
KDUJ 211456Z AUTO 14005KT 10SM SCT017 BKN042 OVC055 24/18 A3019 RMK AO2 SLP212 T02390183 50002
KDUJ 211356Z AUTO VRB04KT 10SM BKN085 22/18 A3020 RMK AO2 SLP215 T02220183
KDUJ 211256Z AUTO 11007KT 10SM SCT065 BKN080 21/18 A3020 RMK AO2 SLP214 T02060178
KDUJ 211156Z AUTO 11006KT 8SM SCT070 OVC090 19/17 A3018 RMK AO2 SLP211 T01890167 10189 20167 52015
KDUJ 211056Z AUTO 10005KT 8SM BKN085 18/16 A3017 RMK AO2 SLP206 T01780161
KDUJ 210956Z AUTO 11004KT 9SM OVC080 18/16 A3015 RMK AO2 SLP199 T01780161
KDUJ 210856Z AUTO 10003KT 8SM CLR 17/16 A3014 RMK AO2 SLP195 T01720156 53000
KDUJ 210756Z AUTO 13005KT 10SM BKN085 18/16 A3012 RMK AO2 SLP188 T01830161
KDUJ 210656Z AUTO 12005KT 10SM BKN090 18/16 A3013 RMK AO2 SLP190 T01830161
KDUJ 210556Z AUTO 13006KT 10SM OVC085 19/16 A3014 RMK AO2 SLP194 T01890161 10222 20183 58001
KDUJ 210456Z AUTO 11005KT 10SM OVC080 19/16 A3014 RMK AO2 SLP196 T01890161 402440172
KDUJ 210356Z AUTO 12004KT 10SM CLR 18/16 A3014 RMK AO2 SLP198 T01830161